createdAt,value
2023-04-10T00:01:40.593Z,20.40
2023-04-10T00:04:09.870Z,19.80
2023-04-10T00:06:38.847Z,20.20
2023-04-10T00:09:07.301Z,20.80
2023-04-10T00:11:36.099Z,21.43
2023-04-10T00:14:05.745Z,21.37
2023-04-10T00:16:34.517Z,21.20
2023-04-10T00:19:03.089Z,21.43
2023-04-10T00:21:31.541Z,20.23
2023-04-10T00:23:59.865Z,20.90
2023-04-10T00:26:28.299Z,21.70
2023-04-10T00:28:56.852Z,20.57
2023-04-10T00:31:26.651Z,21.60
2023-04-10T00:33:56.310Z,20.67
2023-04-10T00:36:26.015Z,22.33
2023-04-10T00:38:54.334Z,21.23
2023-04-10T00:41:24.095Z,20.90
2023-04-10T00:43:56.497Z,21.03
2023-04-10T00:46:26.550Z,21.50
2023-04-10T00:48:56.498Z,20.67
2023-04-10T00:51:24.854Z,20.97
2023-04-10T00:53:54.696Z,21.90
2023-04-10T00:56:24.960Z,21.07
2023-04-10T00:58:53.385Z,21.00
2023-04-10T01:01:22.065Z,20.87
2023-04-10T01:03:53.437Z,22.13
2023-04-10T01:06:32.984Z,21.90
2023-04-10T01:09:09.597Z,21.97
2023-04-10T01:11:48.350Z,21.80
2023-04-10T01:14:28.798Z,21.73
2023-04-10T01:17:02.855Z,22.00
2023-04-10T01:20:05.148Z,22.23
2023-04-10T01:22:47.029Z,21.63
2023-04-10T01:25:38.416Z,22.13
2023-04-10T01:28:20.771Z,21.70
2023-04-10T01:30:53.970Z,23.10
2023-04-10T01:33:27.834Z,21.23
2023-04-10T01:36:01.113Z,22.20
2023-04-10T01:38:31.798Z,21.67
2023-04-10T01:41:02.400Z,21.80
2023-04-10T01:43:32.172Z,22.03
2023-04-10T01:46:03.412Z,21.67
2023-04-10T01:48:32.158Z,21.57
2023-04-10T01:51:02.297Z,21.30
2023-04-10T01:53:32.773Z,21.20
2023-04-10T01:56:03.005Z,21.03
2023-04-10T01:58:31.924Z,21.43
2023-04-10T02:01:01.806Z,21.53
2023-04-10T02:03:30.486Z,20.87
2023-04-10T02:06:15.620Z,21.93
2023-04-10T02:08:50.046Z,21.27
2023-04-10T02:11:29.664Z,21.80
2023-04-10T02:14:02.447Z,20.90
2023-04-10T02:16:34.462Z,20.37
2023-04-10T02:19:04.343Z,22.23
2023-04-10T02:21:34.114Z,21.10
2023-04-10T02:24:02.901Z,21.07
2023-04-10T02:26:31.469Z,21.80
2023-04-10T02:28:59.893Z,20.80
2023-04-10T02:31:28.393Z,21.40
2023-04-10T02:33:58.103Z,21.40
2023-04-10T02:36:26.414Z,21.50
2023-04-10T02:38:54.859Z,21.47
2023-04-10T02:41:24.398Z,20.00
2023-04-10T02:43:53.032Z,20.50
2023-04-10T02:46:21.686Z,20.60
2023-04-10T02:48:49.940Z,20.37
2023-04-10T02:51:19.472Z,20.63
2023-04-10T02:53:48.767Z,20.83
2023-04-10T02:56:18.631Z,20.93
2023-04-10T02:58:47.908Z,20.40
2023-04-10T03:01:16.343Z,21.40
2023-04-10T03:03:45.000Z,20.40
2023-04-10T03:06:13.588Z,21.00
2023-04-10T03:08:43.352Z,21.47
2023-04-10T03:11:11.791Z,21.57
2023-04-10T03:13:40.110Z,21.47
2023-04-10T03:16:09.049Z,21.30
2023-04-10T03:18:37.476Z,20.90
2023-04-10T03:21:07.475Z,20.63
2023-04-10T03:23:36.035Z,20.53
2023-04-10T03:26:06.274Z,21.03
2023-04-10T03:28:36.752Z,21.53
2023-04-10T03:31:06.810Z,21.27
2023-04-10T03:33:35.524Z,21.70
2023-04-10T03:36:04.037Z,22.13
2023-04-10T03:38:32.559Z,22.50
2023-04-10T03:41:01.245Z,21.57
2023-04-10T03:43:31.639Z,21.77
2023-04-10T03:46:00.155Z,22.00
2023-04-10T03:48:30.738Z,21.40
2023-04-10T03:50:59.573Z,21.00
2023-04-10T03:53:28.001Z,21.60
2023-04-10T03:55:56.467Z,22.40
2023-04-10T03:58:24.917Z,21.70
2023-04-10T04:00:54.773Z,22.60
2023-04-10T04:03:23.441Z,22.23
2023-04-10T04:05:52.487Z,22.50
2023-04-10T04:08:20.942Z,22.77
2023-04-10T04:10:49.724Z,22.70
2023-04-10T04:13:18.070Z,22.20
2023-04-10T04:15:47.970Z,21.83
2023-04-10T04:18:17.690Z,21.83
2023-04-10T04:20:46.025Z,21.67
2023-04-10T04:23:14.588Z,22.10
2023-04-10T04:25:43.880Z,22.20
2023-04-10T04:28:13.767Z,22.77
2023-04-10T04:30:42.295Z,22.70
2023-04-10T04:33:10.734Z,21.93
2023-04-10T04:35:40.555Z,22.07
2023-04-10T04:38:09.177Z,22.07
2023-04-10T04:40:37.740Z,22.20
2023-04-10T04:43:06.186Z,23.40
2023-04-10T04:45:35.005Z,21.63
2023-04-10T04:48:03.699Z,21.83
2023-04-10T04:50:32.224Z,21.50
2023-04-10T04:53:02.239Z,21.00
2023-04-10T04:55:30.798Z,20.50
2023-04-10T04:57:59.344Z,21.23
2023-04-10T05:00:27.793Z,20.93
2023-04-10T05:02:56.428Z,21.00
2023-04-10T05:05:25.028Z,20.30
2023-04-10T05:07:53.359Z,20.60
2023-04-10T05:10:23.345Z,21.33
2023-04-10T05:12:51.786Z,21.10
2023-04-10T05:15:20.477Z,20.93
2023-04-10T05:17:51.171Z,20.90
2023-04-10T05:20:21.830Z,21.40
2023-04-10T05:22:50.478Z,20.77
2023-04-10T05:25:19.150Z,20.67
2023-04-10T05:27:48.811Z,21.13
2023-04-10T05:30:17.354Z,20.13
2023-04-10T05:32:46.229Z,21.10
2023-04-10T05:35:14.966Z,21.33
2023-04-10T05:37:43.642Z,21.63
2023-04-10T05:40:12.829Z,19.70
2023-04-10T05:42:41.355Z,20.90
2023-04-10T05:45:12.203Z,19.80
2023-04-10T05:47:40.698Z,19.90
2023-04-10T05:50:09.563Z,19.30
2023-04-10T05:52:38.133Z,19.30
2023-04-10T05:55:07.790Z,19.30
2023-04-10T05:57:36.449Z,19.37
2023-04-10T06:00:05.265Z,20.23
2023-04-10T06:02:35.987Z,19.60
2023-04-10T06:05:04.815Z,19.67
2023-04-10T06:07:33.573Z,19.20
2023-04-10T06:10:02.540Z,21.23
2023-04-10T06:12:30.932Z,20.27
2023-04-10T06:14:59.497Z,19.20
2023-04-10T06:17:28.927Z,18.97
2023-04-10T06:20:01.085Z,19.80
2023-04-10T06:22:29.730Z,18.97
2023-04-10T06:24:58.412Z,18.77
2023-04-10T06:27:26.984Z,19.60
2023-04-10T06:29:55.411Z,19.57
2023-04-10T06:32:24.007Z,18.70
2023-04-10T06:34:53.042Z,18.40
2023-04-10T06:37:29.267Z,18.53
2023-04-10T06:40:16.084Z,18.80
2023-04-10T06:42:44.618Z,19.70
2023-04-10T06:45:13.437Z,18.13
2023-04-10T06:47:42.001Z,18.53
2023-04-10T06:50:11.259Z,20.33
2023-04-10T06:52:40.921Z,18.90
2023-04-10T06:55:09.952Z,19.20
2023-04-10T06:57:38.520Z,18.43
2023-04-10T07:00:08.505Z,19.37
2023-04-10T07:02:36.996Z,18.50
2023-04-10T07:05:05.751Z,18.50
2023-04-10T07:07:34.318Z,18.90
2023-04-10T07:10:04.435Z,18.63
2023-04-10T07:12:32.877Z,18.00
2023-04-10T07:15:01.574Z,18.17
2023-04-10T07:17:30.179Z,18.27
2023-04-10T07:19:58.801Z,17.93
2023-04-10T07:22:28.083Z,18.53
2023-04-10T07:24:56.520Z,18.50
2023-04-10T07:27:28.560Z,18.90
2023-04-10T07:29:58.684Z,18.10
2023-04-10T07:32:29.348Z,18.30
2023-04-10T07:35:00.846Z,18.30
2023-04-10T07:37:31.133Z,18.57
2023-04-10T07:40:01.080Z,18.53
2023-04-10T07:42:32.569Z,18.90
2023-04-10T07:45:02.684Z,19.50
2023-04-10T07:47:33.955Z,19.50
2023-04-10T07:50:04.324Z,19.03
2023-04-10T07:52:34.263Z,18.63
2023-04-10T07:55:04.595Z,19.90
2023-04-10T07:57:35.919Z,18.30
2023-04-10T08:00:06.787Z,19.73
2023-04-10T08:02:37.023Z,18.87
2023-04-10T08:05:07.646Z,19.00
2023-04-10T08:07:36.505Z,19.40
2023-04-10T08:10:05.172Z,19.33
2023-04-10T08:12:36.135Z,18.90
2023-04-10T08:15:04.820Z,18.53
2023-04-10T08:17:34.268Z,18.60
2023-04-10T08:20:02.656Z,18.83
2023-04-10T08:22:31.208Z,18.23
2023-04-10T08:24:59.653Z,18.67
2023-04-10T08:27:28.601Z,18.43
2023-04-10T08:29:58.698Z,18.17
2023-04-10T08:32:27.780Z,18.50
2023-04-10T08:34:56.302Z,17.83
2023-04-10T08:37:26.553Z,18.10
2023-04-10T08:39:55.355Z,19.23
2023-04-10T08:42:23.784Z,19.57
2023-04-10T08:44:52.724Z,18.83
2023-04-10T08:47:24.787Z,18.40
2023-04-10T08:49:57.620Z,17.93
2023-04-10T08:52:27.386Z,19.13
2023-04-10T08:54:57.633Z,18.50
2023-04-10T08:57:27.409Z,18.00
2023-04-10T08:59:56.422Z,17.90
2023-04-10T09:02:26.624Z,17.67
2023-04-10T09:04:56.911Z,17.87
2023-04-10T09:07:25.710Z,18.20
2023-04-10T09:09:54.154Z,19.43
2023-04-10T09:12:22.708Z,18.40
2023-04-10T09:14:53.461Z,18.20
2023-04-10T09:17:23.877Z,18.67
2023-04-10T09:19:54.920Z,18.93
2023-04-10T09:22:32.316Z,19.07
2023-04-10T09:25:02.112Z,18.30
2023-04-10T09:27:33.296Z,17.73
2023-04-10T09:30:01.997Z,18.87
2023-04-10T09:32:42.016Z,18.43
2023-04-10T09:35:14.084Z,17.77
2023-04-10T09:37:43.732Z,19.50
2023-04-10T09:40:22.255Z,18.00
2023-04-10T09:42:51.035Z,18.80
2023-04-10T09:45:22.559Z,19.00
2023-04-10T09:48:12.294Z,17.83
2023-04-10T09:50:42.279Z,18.23
2023-04-10T09:53:11.579Z,18.30
2023-04-10T09:55:40.849Z,18.80
2023-04-10T09:58:10.849Z,18.43
2023-04-10T10:00:42.040Z,19.83
2023-04-10T10:03:12.778Z,18.60
2023-04-10T10:05:44.621Z,19.20
2023-04-10T10:08:14.336Z,19.30
2023-04-10T10:10:48.213Z,19.20
2023-04-10T10:13:25.646Z,19.10
2023-04-10T10:16:03.216Z,18.00
2023-04-10T10:18:40.622Z,19.03
2023-04-10T10:21:11.941Z,18.60
2023-04-10T10:23:41.936Z,19.00
2023-04-10T10:26:11.695Z,19.20
2023-04-10T10:28:42.310Z,18.90
2023-04-10T10:31:12.771Z,18.97
2023-04-10T10:33:42.546Z,19.83
2023-04-10T10:36:14.135Z,19.10
2023-04-10T10:38:52.621Z,18.37
2023-04-10T10:41:28.392Z,19.00
2023-04-10T10:44:07.883Z,18.30
2023-04-10T10:46:44.243Z,18.63
2023-04-10T10:49:12.682Z,18.90
2023-04-10T10:51:50.866Z,19.40
2023-04-10T10:54:32.717Z,19.20
2023-04-10T10:57:01.939Z,19.60
2023-04-10T10:59:55.774Z,19.73
2023-04-10T11:02:25.208Z,19.53
2023-04-10T11:04:53.757Z,19.23
2023-04-10T11:07:23.952Z,19.10
2023-04-10T11:09:57.345Z,19.60
2023-04-10T11:12:26.717Z,18.70
2023-04-10T11:14:59.849Z,19.30
2023-04-10T11:17:51.846Z,19.20
2023-04-10T11:20:22.372Z,18.10
2023-04-10T11:23:12.506Z,18.83
2023-04-10T11:25:52.112Z,18.73
2023-04-10T11:28:39.685Z,19.97
2023-04-10T11:31:19.862Z,19.30
2023-04-10T11:33:49.640Z,19.40
2023-04-10T11:36:18.804Z,19.30
2023-04-10T11:39:02.621Z,19.30
2023-04-10T11:41:32.724Z,20.50
2023-04-10T11:44:02.813Z,19.83
2023-04-10T11:46:31.769Z,20.20
2023-04-10T11:49:01.287Z,20.13
2023-04-10T11:51:29.968Z,19.73
2023-04-10T11:54:11.258Z,20.80
2023-04-10T11:56:41.021Z,19.83
2023-04-10T11:59:14.492Z,19.93
2023-04-10T12:01:44.409Z,20.23
2023-04-10T12:04:17.201Z,66.00
2023-04-10T12:06:47.015Z,20.07
2023-04-10T12:09:18.099Z,19.43
2023-04-10T12:11:54.449Z,19.27
2023-04-10T12:14:24.210Z,19.33
2023-04-10T12:16:53.133Z,19.67
2023-04-10T12:19:23.752Z,19.80
2023-04-10T12:21:52.304Z,18.93
2023-04-10T12:24:44.202Z,19.27
2023-04-10T12:27:18.212Z,19.20
2023-04-10T12:29:46.939Z,26.50
2023-04-10T12:32:15.816Z,25.47
2023-04-10T12:34:50.860Z,24.40
2023-04-10T12:37:19.312Z,25.20
2023-04-10T12:39:49.192Z,24.43
2023-04-10T12:42:21.009Z,24.30
2023-04-10T12:44:54.741Z,24.43
2023-04-10T12:47:24.128Z,25.60
2023-04-10T12:50:09.115Z,24.90
2023-04-10T12:52:38.274Z,25.20
2023-04-10T12:55:13.551Z,24.87
2023-04-10T12:57:42.620Z,25.13
2023-04-10T13:00:12.961Z,19.20
2023-04-10T13:02:42.108Z,18.60
2023-04-10T13:05:11.661Z,18.70
2023-04-10T13:07:41.754Z,18.50
2023-04-10T13:10:12.049Z,18.20
2023-04-10T13:12:42.176Z,18.70
2023-04-10T13:15:12.477Z,19.10
2023-04-10T13:17:42.076Z,19.30
2023-04-10T13:20:11.905Z,19.00
2023-04-10T13:22:40.436Z,19.20
2023-04-10T13:25:09.370Z,18.90
2023-04-10T13:27:38.995Z,18.90
2023-04-10T13:30:08.907Z,19.10
2023-04-10T13:32:37.462Z,18.37
2023-04-10T13:35:06.364Z,18.50
2023-04-10T13:37:34.917Z,19.00
2023-04-10T13:40:05.373Z,19.40
2023-04-10T13:42:34.424Z,18.77
2023-04-10T13:45:06.364Z,18.53
2023-04-10T13:47:34.761Z,18.23
2023-04-10T13:50:03.011Z,18.87
2023-04-10T13:52:31.455Z,19.37
2023-04-10T13:54:59.895Z,18.67
2023-04-10T13:57:28.464Z,19.00
2023-04-10T13:59:57.138Z,19.60
2023-04-10T14:02:27.132Z,19.40
2023-04-10T14:04:55.694Z,20.03
2023-04-10T14:07:24.168Z,19.50
2023-04-10T14:09:53.536Z,19.40
2023-04-10T14:12:23.201Z,19.20
2023-04-10T14:14:51.856Z,19.00
2023-04-10T14:17:20.535Z,19.80
2023-04-10T14:19:51.866Z,19.93
2023-04-10T14:22:20.543Z,19.73
2023-04-10T14:24:49.882Z,20.30
2023-04-10T14:27:19.732Z,19.73
2023-04-10T14:29:54.631Z,20.00
2023-04-10T14:32:23.664Z,19.87
2023-04-10T14:34:53.484Z,20.43
2023-04-10T14:37:22.587Z,20.00
2023-04-10T14:39:51.401Z,21.20
2023-04-10T14:42:20.074Z,20.90
2023-04-10T14:44:48.621Z,21.00
2023-04-10T14:47:17.330Z,20.53
2023-04-10T14:49:45.988Z,22.03
2023-04-10T14:52:16.356Z,21.03
2023-04-10T14:54:44.909Z,21.47
2023-04-10T14:57:15.273Z,22.07
2023-04-10T14:59:44.349Z,21.70
2023-04-10T15:02:12.883Z,22.17
2023-04-10T15:04:41.345Z,22.33
2023-04-10T15:07:09.882Z,24.27
2023-04-10T15:09:40.953Z,23.90
2023-04-10T15:12:09.751Z,24.27
2023-04-10T15:14:38.204Z,23.80
2023-04-10T15:17:06.668Z,23.90
2023-04-10T15:19:35.442Z,23.90
2023-04-10T15:22:04.006Z,24.67
2023-04-10T15:24:39.862Z,23.87
2023-04-10T15:27:13.001Z,24.47
2023-04-10T15:29:44.319Z,24.70
2023-04-10T15:32:12.757Z,24.10
2023-04-10T15:34:41.319Z,24.60
2023-04-10T15:37:09.887Z,24.67
2023-04-10T15:39:38.588Z,24.47
2023-04-10T15:42:08.694Z,25.90
2023-04-10T15:44:38.349Z,25.30
2023-04-10T15:47:06.923Z,26.80
2023-04-10T15:49:38.193Z,27.20
2023-04-10T15:52:07.617Z,27.17
2023-04-10T15:54:36.285Z,27.20
2023-04-10T15:57:05.233Z,30.77
2023-04-10T15:59:34.496Z,32.90
2023-04-10T16:02:04.208Z,36.17
2023-04-10T16:04:33.128Z,36.07
2023-04-10T16:07:01.416Z,38.43
2023-04-10T16:09:29.966Z,38.20
2023-04-10T16:11:58.733Z,42.60
2023-04-10T16:14:27.654Z,42.53
2023-04-10T16:16:55.875Z,47.53
2023-04-10T16:19:25.748Z,49.00
2023-04-10T16:21:54.064Z,49.90
2023-04-10T16:24:22.376Z,51.33
2023-04-10T16:26:50.822Z,55.13
2023-04-10T16:29:19.995Z,60.80
2023-04-10T16:31:48.448Z,63.90
2023-04-10T16:34:17.364Z,63.77
2023-04-10T16:36:46.987Z,64.83
2023-04-10T16:39:15.312Z,66.40
2023-04-10T16:41:43.742Z,67.33
2023-04-10T16:44:12.086Z,68.10
2023-04-10T16:46:40.406Z,72.67
2023-04-10T16:49:08.728Z,68.37
2023-04-10T16:51:37.160Z,75.97
2023-04-10T16:54:07.159Z,76.80
2023-04-10T16:56:35.586Z,73.10
2023-04-10T16:59:04.147Z,73.17
2023-04-10T17:01:34.264Z,75.13
2023-04-10T17:04:02.819Z,73.93
2023-04-10T17:06:31.407Z,77.37
2023-04-10T17:08:59.724Z,76.17
2023-04-10T17:11:29.621Z,83.53
2023-04-10T17:13:58.039Z,76.47
2023-04-10T17:16:26.411Z,74.43
2023-04-10T17:18:54.800Z,74.97
2023-04-10T17:21:23.239Z,76.17
2023-04-10T17:23:51.445Z,74.43
2023-04-10T17:26:20.009Z,74.63
2023-04-10T17:28:49.773Z,71.97
2023-04-10T17:31:19.319Z,72.23
2023-04-10T17:33:47.725Z,75.43
2023-04-10T17:36:16.337Z,73.90
2023-04-10T17:38:44.727Z,72.90
2023-04-10T17:41:16.064Z,72.47
2023-04-10T17:43:44.534Z,69.83
2023-04-10T17:46:16.168Z,74.57
2023-04-10T17:48:45.392Z,75.90
2023-04-10T17:51:13.837Z,77.63
2023-04-10T17:53:42.100Z,80.20
2023-04-10T17:56:18.090Z,78.20
2023-04-10T17:58:46.429Z,81.23
2023-04-10T18:01:22.598Z,80.83
2023-04-10T18:03:51.166Z,82.57
2023-04-10T18:06:19.544Z,82.30
2023-04-10T18:08:47.858Z,75.90
2023-04-10T18:11:16.443Z,79.10
2023-04-10T18:13:44.863Z,78.63
2023-04-10T18:16:13.126Z,79.97
2023-04-10T18:18:43.105Z,79.10
2023-04-10T18:21:13.343Z,77.10
2023-04-10T18:23:41.979Z,77.77
2023-04-10T18:26:10.313Z,78.47
2023-04-10T18:28:38.978Z,79.07
2023-04-10T18:31:08.473Z,81.90
2023-04-10T18:33:36.838Z,85.70
2023-04-10T18:36:07.233Z,86.13
2023-04-10T18:38:36.658Z,86.43
2023-04-10T18:41:06.350Z,87.97
2023-04-10T18:43:34.564Z,84.27
2023-04-10T18:46:02.908Z,85.13
2023-04-10T18:48:31.314Z,84.90
2023-04-10T18:50:59.647Z,84.87
2023-04-10T18:53:29.392Z,85.70
2023-04-10T18:55:57.610Z,80.60
2023-04-10T18:58:26.051Z,79.90
2023-04-10T19:00:55.078Z,80.73
2023-04-10T19:03:24.011Z,81.97
2023-04-10T19:05:52.324Z,83.50
2023-04-10T19:08:20.757Z,78.90
2023-04-10T19:10:50.274Z,78.53
2023-04-10T19:13:18.475Z,81.50
2023-04-10T19:15:48.403Z,75.20
2023-04-10T19:18:16.823Z,78.80
2023-04-10T19:20:49.931Z,76.13
2023-04-10T19:23:19.936Z,79.50
2023-04-10T19:25:53.069Z,81.80
2023-04-10T19:28:23.087Z,85.80
2023-04-10T19:30:51.518Z,80.90
2023-04-10T19:33:20.773Z,81.00
2023-04-10T19:35:49.031Z,85.10
2023-04-10T19:38:17.551Z,86.10
2023-04-10T19:40:45.856Z,78.93
2023-04-10T19:43:15.512Z,81.90
2023-04-10T19:45:43.943Z,88.93
2023-04-10T19:48:12.389Z,86.83
2023-04-10T19:50:40.697Z,85.47
2023-04-10T19:53:11.178Z,85.40
2023-04-10T19:55:40.583Z,93.50
2023-04-10T19:58:13.308Z,88.67
2023-04-10T20:00:52.106Z,91.40
2023-04-10T20:03:26.729Z,87.77
2023-04-10T20:05:55.259Z,86.07
2023-04-10T20:08:23.775Z,88.77
2023-04-10T20:10:51.980Z,87.43
2023-04-10T20:13:20.409Z,88.20
2023-04-10T20:15:50.433Z,84.53
2023-04-10T20:18:19.091Z,86.60
2023-04-10T20:20:47.532Z,87.20
2023-04-10T20:23:15.872Z,90.10
2023-04-10T20:25:44.419Z,89.13
2023-04-10T20:28:12.735Z,85.50
2023-04-10T20:30:41.060Z,88.73
2023-04-10T20:33:10.697Z,93.03
2023-04-10T20:35:38.934Z,94.10
2023-04-10T20:38:07.123Z,90.30
2023-04-10T20:40:36.023Z,92.50
2023-04-10T20:43:10.887Z,89.60
2023-04-10T20:45:39.268Z,88.60
2023-04-10T20:48:09.494Z,86.13
2023-04-10T20:50:43.714Z,86.97
2023-04-10T20:53:13.102Z,86.90
2023-04-10T20:55:41.548Z,84.43
2023-04-10T20:58:09.743Z,86.37
2023-04-10T21:00:39.706Z,86.53
2023-04-10T21:03:08.520Z,82.90
2023-04-10T21:05:42.519Z,86.83
2023-04-10T21:08:11.438Z,84.53
2023-04-10T21:10:44.260Z,88.63
2023-04-10T21:13:14.332Z,89.27
2023-04-10T21:15:42.753Z,92.27
2023-04-10T21:18:11.228Z,92.77
2023-04-10T21:20:39.518Z,94.47
2023-04-10T21:23:09.169Z,91.80
2023-04-10T21:25:37.971Z,90.97
2023-04-10T21:28:06.279Z,93.53
2023-04-10T21:30:34.603Z,90.80
2023-04-10T21:33:03.186Z,93.13
2023-04-10T21:35:31.523Z,87.23
2023-04-10T21:38:02.134Z,95.47
2023-04-10T21:40:34.624Z,94.67
2023-04-10T21:43:03.302Z,91.10
2023-04-10T21:45:31.991Z,93.47
2023-04-10T21:48:00.824Z,91.30
2023-04-10T21:50:29.339Z,86.07
2023-04-10T21:52:57.776Z,90.83
2023-04-10T21:55:25.980Z,90.13
2023-04-10T21:57:55.624Z,98.07
2023-04-10T22:00:23.809Z,92.60
2023-04-10T22:02:52.936Z,95.30
2023-04-10T22:05:22.620Z,95.00
2023-04-10T22:07:50.954Z,93.27
2023-04-10T22:10:19.372Z,89.50
2023-04-10T22:12:48.804Z,89.80
2023-04-10T22:15:19.019Z,86.80
2023-04-10T22:17:47.553Z,88.80
2023-04-10T22:20:16.285Z,90.07
2023-04-10T22:22:44.590Z,87.07
2023-04-10T22:25:13.149Z,83.87
2023-04-10T22:27:41.462Z,86.53
2023-04-10T22:30:11.126Z,60.40
2023-04-10T22:32:40.688Z,41.00
2023-04-10T22:35:09.912Z,37.80
2023-04-10T22:37:38.229Z,36.77
2023-04-10T22:40:07.751Z,37.20
2023-04-10T22:42:36.073Z,42.07
2023-04-10T22:45:04.513Z,43.03
2023-04-10T22:47:32.828Z,43.80
2023-04-10T22:50:02.594Z,39.17
2023-04-10T22:52:30.918Z,39.13
2023-04-10T22:54:59.238Z,38.57
2023-04-10T22:57:27.477Z,35.13
2023-04-10T22:59:55.754Z,33.90
2023-04-10T23:02:24.179Z,34.67
2023-04-10T23:04:52.548Z,32.23
2023-04-10T23:07:22.062Z,31.80
2023-04-10T23:09:50.353Z,32.70
2023-04-10T23:12:18.682Z,32.87
2023-04-10T23:14:47.001Z,34.20
2023-04-10T23:17:15.440Z,35.30
2023-04-10T23:19:43.666Z,37.83
2023-04-10T23:22:12.733Z,41.60
2023-04-10T23:24:42.330Z,46.47
2023-04-10T23:27:10.531Z,55.90
2023-04-10T23:29:38.730Z,64.97
2023-04-10T23:32:08.009Z,76.50
2023-04-10T23:34:36.208Z,91.07
2023-04-10T23:37:04.409Z,96.93
2023-04-10T23:39:32.610Z,104.83
2023-04-10T23:42:02.501Z,110.50
2023-04-10T23:44:30.829Z,111.03
2023-04-10T23:46:59.064Z,108.87
2023-04-10T23:49:27.333Z,113.30
2023-04-10T23:51:55.660Z,108.73
2023-04-10T23:54:23.858Z,109.57
2023-04-10T23:56:52.056Z,112.70
2023-04-10T23:59:21.706Z,111.80
